createdAt,value
2023-09-06T00:02:08.882Z,8.80
2023-09-06T00:04:36.453Z,8.70
2023-09-06T00:07:05.171Z,8.97
2023-09-06T00:09:33.285Z,9.38
2023-09-06T00:12:00.876Z,9.20
2023-09-06T00:14:30.928Z,8.13
2023-09-06T00:16:58.356Z,9.57
2023-09-06T00:19:25.982Z,7.67
2023-09-06T00:21:53.200Z,9.50
2023-09-06T00:24:20.853Z,8.05
2023-09-06T00:26:48.125Z,11.63
2023-09-06T00:29:15.552Z,9.70
2023-09-06T00:31:42.772Z,9.67
2023-09-06T00:34:10.125Z,10.02
2023-09-06T00:36:37.414Z,11.10
2023-09-06T00:39:06.987Z,9.88
2023-09-06T00:41:34.389Z,9.38
2023-09-06T00:44:01.536Z,9.73
2023-09-06T00:46:29.659Z,8.98
2023-09-06T00:48:57.007Z,10.82
2023-09-06T00:51:24.395Z,10.55
2023-09-06T00:53:51.567Z,10.68
2023-09-06T00:56:18.956Z,8.10
2023-09-06T00:58:46.796Z,8.95
2023-09-06T01:01:14.437Z,9.40
2023-09-06T01:03:41.989Z,13.68
2023-09-06T01:06:13.694Z,8.23
2023-09-06T01:08:47.719Z,10.13
2023-09-06T01:11:23.438Z,10.20
2023-09-06T01:13:51.924Z,10.60
2023-09-06T01:16:34.161Z,9.25
2023-09-06T01:19:02.405Z,10.95
2023-09-06T01:21:53.920Z,10.37
2023-09-06T01:24:22.572Z,8.40
2023-09-06T01:26:50.431Z,8.40
2023-09-06T01:29:19.279Z,10.15
2023-09-06T01:31:46.615Z,11.30
2023-09-06T01:34:14.296Z,9.33
2023-09-06T01:36:42.342Z,8.32
2023-09-06T01:39:12.628Z,10.43
2023-09-06T01:41:39.986Z,9.80
2023-09-06T01:44:07.491Z,9.95
2023-09-06T01:46:35.028Z,8.37
2023-09-06T01:49:02.325Z,11.18
2023-09-06T01:51:29.582Z,10.90
2023-09-06T01:53:57.488Z,9.68
2023-09-06T01:56:25.463Z,8.48
2023-09-06T01:58:52.826Z,9.10
2023-09-06T02:01:20.383Z,9.02
2023-09-06T02:03:51.983Z,9.77
2023-09-06T02:06:19.448Z,10.40
2023-09-06T02:08:46.833Z,11.13
2023-09-06T02:11:16.675Z,10.37
2023-09-06T02:13:43.966Z,11.23
2023-09-06T02:16:13.408Z,9.57
2023-09-06T02:18:41.878Z,11.10
2023-09-06T02:21:09.007Z,9.63
2023-09-06T02:23:36.853Z,9.23
2023-09-06T02:26:04.606Z,9.20
2023-09-06T02:28:32.123Z,13.15
2023-09-06T02:31:00.274Z,8.52
2023-09-06T02:33:29.863Z,13.15
2023-09-06T02:35:57.098Z,11.33
2023-09-06T02:38:24.318Z,9.48
2023-09-06T02:40:52.720Z,9.57
2023-09-06T02:43:20.025Z,11.40
2023-09-06T02:45:51.675Z,10.98
2023-09-06T02:48:20.315Z,9.07
2023-09-06T02:50:47.911Z,8.70
2023-09-06T02:53:24.256Z,11.32
2023-09-06T02:55:53.616Z,8.98
2023-09-06T02:58:27.651Z,9.05
2023-09-06T03:01:00.286Z,8.83
2023-09-06T03:03:32.248Z,9.68
2023-09-06T03:06:00.332Z,12.07
2023-09-06T03:08:30.846Z,10.85
2023-09-06T03:10:58.800Z,11.85
2023-09-06T03:13:27.026Z,9.87
2023-09-06T03:15:54.616Z,8.35
2023-09-06T03:18:24.006Z,9.82
2023-09-06T03:20:56.808Z,8.95
2023-09-06T03:23:26.116Z,8.63
2023-09-06T03:25:56.830Z,9.90
2023-09-06T03:28:30.349Z,9.20
2023-09-06T03:31:00.674Z,8.82
2023-09-06T03:33:29.650Z,10.20
2023-09-06T03:35:58.113Z,10.50
2023-09-06T03:38:28.366Z,10.43
2023-09-06T03:40:57.433Z,12.05
2023-09-06T03:43:32.529Z,11.45
2023-09-06T03:46:00.624Z,13.07
2023-09-06T03:48:29.981Z,14.38
2023-09-06T03:51:04.683Z,14.30
2023-09-06T03:53:33.364Z,10.02
2023-09-06T03:56:02.068Z,10.98
2023-09-06T03:58:46.171Z,14.85
2023-09-06T04:01:17.436Z,13.65
2023-09-06T04:03:52.076Z,11.37
2023-09-06T04:06:20.986Z,12.05
2023-09-06T04:08:49.748Z,12.77
2023-09-06T04:11:18.332Z,13.15
2023-09-06T04:13:46.013Z,12.40
2023-09-06T04:16:17.718Z,12.53
2023-09-06T04:18:46.714Z,12.65
2023-09-06T04:21:13.981Z,16.38
2023-09-06T04:23:43.666Z,11.98
2023-09-06T04:26:15.252Z,12.32
2023-09-06T04:28:43.305Z,13.00
2023-09-06T04:31:14.273Z,13.50
2023-09-06T04:33:44.101Z,15.60
2023-09-06T04:36:22.997Z,15.05
2023-09-06T04:38:57.961Z,14.98
2023-09-06T04:41:26.503Z,12.30
2023-09-06T04:44:00.877Z,15.23
2023-09-06T04:46:29.868Z,15.43
2023-09-06T04:48:57.392Z,17.35
2023-09-06T04:51:25.073Z,14.10
2023-09-06T04:53:52.919Z,12.80
2023-09-06T04:56:27.243Z,16.80
2023-09-06T04:58:54.782Z,13.35
2023-09-06T05:01:26.631Z,14.93
2023-09-06T05:03:54.159Z,13.27
2023-09-06T05:06:22.855Z,12.73
2023-09-06T05:08:50.323Z,13.57
2023-09-06T05:11:21.555Z,12.68
2023-09-06T05:13:51.339Z,15.10
2023-09-06T05:16:19.909Z,15.85
2023-09-06T05:18:50.106Z,17.93
2023-09-06T05:21:20.490Z,15.57
2023-09-06T05:23:48.091Z,14.00
2023-09-06T05:26:15.462Z,14.13
2023-09-06T05:28:45.602Z,14.40
2023-09-06T05:31:14.236Z,13.87
2023-09-06T05:33:44.636Z,17.92
2023-09-06T05:36:14.758Z,14.40
2023-09-06T05:38:45.526Z,14.63
2023-09-06T05:41:14.338Z,17.63
2023-09-06T05:43:44.240Z,12.47
2023-09-06T05:46:25.799Z,13.13
2023-09-06T05:49:01.469Z,18.88
2023-09-06T05:51:33.070Z,14.35
2023-09-06T05:54:02.744Z,12.10
2023-09-06T05:56:31.239Z,12.27
2023-09-06T05:58:59.998Z,10.80
2023-09-06T06:01:30.949Z,11.70
2023-09-06T06:03:58.363Z,15.10
2023-09-06T06:06:25.635Z,11.02
2023-09-06T06:08:52.854Z,14.07
2023-09-06T06:11:20.066Z,14.30
2023-09-06T06:13:53.353Z,12.55
2023-09-06T06:16:31.916Z,16.08
2023-09-06T06:19:01.354Z,11.93
2023-09-06T06:21:30.062Z,11.60
2023-09-06T06:23:57.891Z,14.70
2023-09-06T06:26:25.374Z,12.02
2023-09-06T06:28:52.947Z,14.18
2023-09-06T06:31:20.427Z,11.43
2023-09-06T06:33:47.876Z,15.47
2023-09-06T06:36:15.033Z,12.75
2023-09-06T06:38:42.442Z,12.55
2023-09-06T06:41:15.317Z,11.80
2023-09-06T06:43:42.635Z,14.30
2023-09-06T06:46:24.401Z,17.07
2023-09-06T06:48:52.171Z,11.52
2023-09-06T06:51:19.788Z,12.00
2023-09-06T06:53:47.196Z,11.85
2023-09-06T06:56:14.410Z,13.85
2023-09-06T06:58:41.663Z,15.07
2023-09-06T07:01:08.907Z,15.32
2023-09-06T07:03:36.320Z,17.13
2023-09-06T07:06:03.684Z,15.60
2023-09-06T07:08:32.892Z,12.30
2023-09-06T07:11:01.080Z,11.37
2023-09-06T07:13:29.334Z,13.13
2023-09-06T07:15:56.993Z,13.90
2023-09-06T07:18:24.341Z,13.85
2023-09-06T07:20:51.538Z,13.13
2023-09-06T07:23:19.126Z,13.67
2023-09-06T07:25:48.330Z,11.13
2023-09-06T07:28:15.823Z,15.50
2023-09-06T07:30:43.801Z,16.25
2023-09-06T07:33:11.350Z,13.80
2023-09-06T07:35:38.742Z,11.47
2023-09-06T07:38:05.950Z,16.13
2023-09-06T07:40:33.178Z,13.00
2023-09-06T07:43:00.553Z,13.00
2023-09-06T07:45:28.071Z,10.93
2023-09-06T07:47:55.593Z,12.20
2023-09-06T07:50:23.163Z,13.57
2023-09-06T07:52:50.553Z,12.13
2023-09-06T07:55:18.210Z,13.10
2023-09-06T07:57:45.586Z,12.73
2023-09-06T08:00:13.236Z,15.30
2023-09-06T08:02:40.491Z,11.35
2023-09-06T08:05:07.875Z,13.15
2023-09-06T08:07:35.237Z,12.15
2023-09-06T08:10:03.362Z,10.57
2023-09-06T08:12:30.687Z,11.47
2023-09-06T08:14:59.704Z,11.55
2023-09-06T08:17:28.400Z,11.98
2023-09-06T08:19:55.744Z,11.63
2023-09-06T08:22:35.532Z,9.82
2023-09-06T08:25:10.658Z,9.63
2023-09-06T08:27:37.930Z,11.27
2023-09-06T08:30:06.218Z,12.35
2023-09-06T08:32:33.720Z,13.88
2023-09-06T08:35:01.197Z,12.43
2023-09-06T08:37:28.526Z,12.13
2023-09-06T08:39:55.781Z,8.68
2023-09-06T08:42:24.148Z,9.25
2023-09-06T08:44:52.331Z,11.02
2023-09-06T08:47:21.460Z,9.00
2023-09-06T08:49:49.343Z,9.57
2023-09-06T08:52:16.650Z,13.30
2023-09-06T08:54:45.856Z,17.17
2023-09-06T08:57:14.875Z,8.48
2023-09-06T08:59:43.222Z,10.02
2023-09-06T09:02:13.725Z,10.27
2023-09-06T09:04:44.283Z,10.82
2023-09-06T09:07:12.411Z,8.82
2023-09-06T09:09:58.234Z,13.10
2023-09-06T09:12:29.292Z,8.10
2023-09-06T09:15:02.382Z,10.97
2023-09-06T09:17:53.265Z,10.07
2023-09-06T09:20:27.230Z,9.25
2023-09-06T09:22:54.430Z,11.00
2023-09-06T09:25:24.905Z,12.13
2023-09-06T09:27:55.907Z,10.13
2023-09-06T09:30:23.585Z,10.27
2023-09-06T09:32:57.341Z,10.35
2023-09-06T09:35:26.624Z,11.45
2023-09-06T09:37:53.969Z,11.98
2023-09-06T09:40:24.696Z,9.57
2023-09-06T09:42:57.282Z,12.15
2023-09-06T09:45:26.329Z,11.60
2023-09-06T09:47:57.088Z,12.13
2023-09-06T09:50:25.901Z,11.43
2023-09-06T09:52:53.777Z,9.20
2023-09-06T09:55:22.345Z,11.52
2023-09-06T09:57:49.759Z,10.40
2023-09-06T10:00:17.282Z,13.15
2023-09-06T10:02:44.873Z,11.68
2023-09-06T10:05:13.880Z,24.93
2023-09-06T10:07:49.623Z,10.48
2023-09-06T10:10:18.951Z,13.50
2023-09-06T10:12:47.454Z,10.27
2023-09-06T10:15:18.750Z,12.13
2023-09-06T10:17:46.224Z,9.77
2023-09-06T10:20:16.949Z,11.32
2023-09-06T10:22:49.027Z,10.18
2023-09-06T10:25:17.084Z,10.88
2023-09-06T10:27:48.560Z,12.30
2023-09-06T10:30:23.507Z,8.90
2023-09-06T10:32:50.872Z,9.93
2023-09-06T10:35:22.843Z,10.85
2023-09-06T10:38:03.515Z,10.45
2023-09-06T10:40:53.485Z,10.23
2023-09-06T10:43:21.916Z,10.97
2023-09-06T10:46:15.453Z,11.13
2023-09-06T10:48:42.778Z,15.60
2023-09-06T10:51:12.754Z,10.95
2023-09-06T10:53:40.512Z,9.90
2023-09-06T10:56:08.022Z,9.53
2023-09-06T10:58:35.452Z,13.23
2023-09-06T11:01:12.121Z,9.18
2023-09-06T11:03:39.480Z,11.85
2023-09-06T11:06:06.844Z,11.32
2023-09-06T11:08:34.744Z,10.17
2023-09-06T11:11:02.230Z,12.52
2023-09-06T11:13:32.718Z,10.48
2023-09-06T11:16:00.709Z,11.75
2023-09-06T11:18:29.649Z,10.35
2023-09-06T11:20:57.861Z,9.63
2023-09-06T11:23:25.176Z,13.38
2023-09-06T11:25:59.567Z,13.90
2023-09-06T11:28:35.102Z,12.15
2023-09-06T11:31:06.380Z,12.13
2023-09-06T11:33:34.634Z,15.63
2023-09-06T11:36:04.685Z,10.57
2023-09-06T11:38:35.975Z,11.80
2023-09-06T11:41:05.338Z,9.02
2023-09-06T11:43:33.563Z,10.38
2023-09-06T11:46:05.840Z,9.97
2023-09-06T11:48:35.101Z,11.48
2023-09-06T11:51:14.651Z,10.68
2023-09-06T11:53:43.275Z,10.93
2023-09-06T11:56:12.749Z,9.05
2023-09-06T11:58:50.095Z,12.63
2023-09-06T12:01:21.748Z,11.70
2023-09-06T12:03:49.412Z,10.60
2023-09-06T12:06:17.126Z,9.30
2023-09-06T12:08:45.348Z,10.15
2023-09-06T12:11:16.676Z,10.67
2023-09-06T12:13:44.048Z,14.55
2023-09-06T12:16:12.874Z,9.43
2023-09-06T12:18:40.895Z,17.08
2023-09-06T12:21:08.240Z,13.05
2023-09-06T12:23:38.457Z,12.13
2023-09-06T12:26:07.246Z,15.18
2023-09-06T12:28:36.186Z,11.00
2023-09-06T12:31:15.298Z,11.75
2023-09-06T12:33:48.502Z,12.20
2023-09-06T12:36:18.794Z,15.87
2023-09-06T12:38:46.530Z,11.70
2023-09-06T12:41:14.280Z,11.43
2023-09-06T12:43:41.594Z,13.38
2023-09-06T12:46:10.200Z,13.05
2023-09-06T12:48:37.759Z,12.83
2023-09-06T12:51:07.575Z,12.70
2023-09-06T12:53:35.040Z,12.75
2023-09-06T12:56:02.400Z,10.88
2023-09-06T12:58:30.341Z,13.57
2023-09-06T13:00:59.333Z,10.07
2023-09-06T13:03:27.360Z,12.05
2023-09-06T13:05:55.021Z,10.50
2023-09-06T13:08:22.246Z,12.65
2023-09-06T13:10:49.395Z,9.88
2023-09-06T13:13:16.568Z,12.47
2023-09-06T13:15:43.849Z,12.40
2023-09-06T13:18:11.241Z,10.63
2023-09-06T13:20:38.623Z,12.98
2023-09-06T13:23:05.985Z,9.57
2023-09-06T13:25:36.065Z,10.70
2023-09-06T13:28:03.959Z,12.13
2023-09-06T13:30:31.220Z,14.15
2023-09-06T13:32:58.567Z,14.80
2023-09-06T13:35:25.885Z,13.35
2023-09-06T13:37:53.198Z,13.77
2023-09-06T13:40:21.169Z,12.18
2023-09-06T13:42:48.635Z,13.68
2023-09-06T13:45:16.101Z,13.82
2023-09-06T13:47:44.942Z,12.93
2023-09-06T13:50:12.222Z,12.57
2023-09-06T13:52:39.506Z,11.63
2023-09-06T13:55:07.139Z,13.85
2023-09-06T13:57:34.428Z,14.18
2023-09-06T14:00:02.136Z,10.27
2023-09-06T14:02:34.166Z,12.80
2023-09-06T14:05:02.294Z,15.57
2023-09-06T14:07:29.552Z,13.32
2023-09-06T14:09:58.285Z,10.95
2023-09-06T14:12:25.556Z,14.82
2023-09-06T14:14:55.741Z,12.60
2023-09-06T14:17:23.285Z,13.45
2023-09-06T14:19:50.781Z,14.18
2023-09-06T14:22:18.091Z,13.80
2023-09-06T14:24:45.396Z,13.57
2023-09-06T14:27:12.735Z,13.73
2023-09-06T14:29:40.039Z,16.77
2023-09-06T14:32:07.656Z,12.13
2023-09-06T14:34:35.485Z,15.20
2023-09-06T14:37:02.725Z,13.18
2023-09-06T14:39:30.712Z,15.40
2023-09-06T14:41:57.989Z,12.32
2023-09-06T14:44:25.200Z,13.52
2023-09-06T14:46:52.644Z,15.05
2023-09-06T14:49:20.976Z,18.08
2023-09-06T14:51:48.452Z,13.60
2023-09-06T14:54:15.678Z,14.25
2023-09-06T14:56:42.948Z,14.05
2023-09-06T14:59:10.211Z,15.32
2023-09-06T15:01:40.139Z,14.68
2023-09-06T15:04:07.840Z,12.83
2023-09-06T15:06:48.568Z,16.08
2023-09-06T15:09:24.037Z,16.73
2023-09-06T15:11:52.339Z,17.98
2023-09-06T15:14:20.412Z,15.77
2023-09-06T15:16:48.508Z,16.27
2023-09-06T15:19:15.629Z,18.35
2023-09-06T15:21:44.631Z,19.92
2023-09-06T15:24:12.216Z,16.15
2023-09-06T15:26:39.594Z,18.73
2023-09-06T15:29:06.988Z,16.17
2023-09-06T15:31:34.495Z,15.85
2023-09-06T15:34:02.008Z,16.67
2023-09-06T15:36:32.018Z,16.80
2023-09-06T15:38:59.472Z,16.27
2023-09-06T15:41:28.449Z,19.03
2023-09-06T15:43:55.928Z,17.08
2023-09-06T15:46:23.795Z,15.27
2023-09-06T15:48:51.591Z,15.98
2023-09-06T15:51:19.391Z,20.02
2023-09-06T15:53:46.876Z,17.10
2023-09-06T15:56:14.226Z,14.77
2023-09-06T15:58:41.383Z,18.15
2023-09-06T16:01:09.327Z,17.73
2023-09-06T16:03:36.637Z,16.25
2023-09-06T16:06:03.960Z,19.33
2023-09-06T16:08:31.624Z,18.10
2023-09-06T16:10:58.936Z,18.38
2023-09-06T16:13:26.173Z,15.07
2023-09-06T16:15:53.322Z,16.75
2023-09-06T16:18:20.631Z,18.53
2023-09-06T16:20:47.925Z,16.45
2023-09-06T16:23:15.105Z,19.88
2023-09-06T16:25:42.896Z,17.65
2023-09-06T16:28:11.428Z,19.80
2023-09-06T16:30:40.042Z,21.03
2023-09-06T16:33:07.539Z,19.05
2023-09-06T16:35:37.135Z,22.33
2023-09-06T16:38:10.671Z,18.65
2023-09-06T16:40:42.199Z,18.55
2023-09-06T16:43:11.901Z,17.33
2023-09-06T16:45:39.892Z,21.88
2023-09-06T16:48:07.402Z,17.38
2023-09-06T16:50:34.666Z,21.92
2023-09-06T16:53:02.364Z,16.02
2023-09-06T16:55:29.682Z,17.60
2023-09-06T16:57:57.000Z,22.27
2023-09-06T17:00:24.834Z,20.00
2023-09-06T17:02:53.959Z,20.40
2023-09-06T17:05:21.681Z,18.45
2023-09-06T17:07:50.224Z,17.90
2023-09-06T17:10:20.769Z,16.20
2023-09-06T17:12:48.217Z,23.02
2023-09-06T17:15:20.245Z,17.63
2023-09-06T17:17:47.922Z,20.67
2023-09-06T17:20:18.652Z,16.40
2023-09-06T17:22:46.431Z,15.77
2023-09-06T17:25:13.774Z,18.48
2023-09-06T17:27:43.791Z,21.42
2023-09-06T17:30:19.645Z,19.83
2023-09-06T17:33:03.237Z,17.27
2023-09-06T17:35:35.206Z,16.90
2023-09-06T17:38:06.739Z,19.00
2023-09-06T17:40:34.320Z,17.55
2023-09-06T17:43:01.618Z,19.33
2023-09-06T17:45:29.012Z,17.37
2023-09-06T17:47:57.434Z,20.63
2023-09-06T17:50:24.951Z,18.83
2023-09-06T17:52:52.653Z,20.20
2023-09-06T17:55:21.253Z,18.13
2023-09-06T17:57:48.944Z,17.23
2023-09-06T18:00:24.206Z,16.70
2023-09-06T18:02:51.766Z,15.93
2023-09-06T18:05:19.318Z,18.92
2023-09-06T18:07:46.700Z,18.40
2023-09-06T18:10:13.905Z,16.37
2023-09-06T18:12:42.120Z,17.40
2023-09-06T18:15:13.478Z,15.68
2023-09-06T18:17:46.775Z,19.05
2023-09-06T18:20:16.442Z,16.63
2023-09-06T18:22:43.763Z,15.70
2023-09-06T18:25:11.107Z,18.33
2023-09-06T18:27:39.013Z,15.60
2023-09-06T18:30:12.471Z,17.90
2023-09-06T18:32:43.494Z,16.02
2023-09-06T18:35:11.254Z,21.43
2023-09-06T18:37:38.981Z,16.17
2023-09-06T18:40:10.527Z,15.95
2023-09-06T18:42:37.640Z,21.40
2023-09-06T18:45:04.909Z,17.67
2023-09-06T18:47:32.432Z,20.73
2023-09-06T18:50:00.182Z,15.82
2023-09-06T18:52:27.577Z,16.80
2023-09-06T18:54:54.730Z,17.55
2023-09-06T18:57:22.105Z,22.42
2023-09-06T18:59:49.350Z,16.97
2023-09-06T19:02:16.990Z,20.80
2023-09-06T19:07:25.277Z,18.83
2023-09-06T19:09:53.285Z,15.55
2023-09-06T19:12:20.475Z,16.90
2023-09-06T19:14:47.993Z,17.00
2023-09-06T19:17:17.684Z,15.80
2023-09-06T19:19:45.302Z,17.80
2023-09-06T19:22:12.952Z,15.18
2023-09-06T19:24:40.156Z,15.83
2023-09-06T19:27:07.724Z,17.38
2023-09-06T19:29:35.232Z,14.70
2023-09-06T19:32:04.708Z,16.05
2023-09-06T19:34:32.415Z,13.32
2023-09-06T19:36:59.758Z,13.23
2023-09-06T19:39:28.086Z,17.00
2023-09-06T19:41:55.540Z,13.80
2023-09-06T19:44:22.992Z,14.65
2023-09-06T19:46:50.121Z,14.40
2023-09-06T19:49:17.335Z,15.77
2023-09-06T19:51:44.587Z,13.10
2023-09-06T19:54:11.823Z,13.63
2023-09-06T19:56:39.121Z,14.18
2023-09-06T19:59:09.192Z,13.43
2023-09-06T20:01:36.921Z,12.10
2023-09-06T20:04:04.638Z,13.50
2023-09-06T20:06:32.073Z,14.38
2023-09-06T20:08:59.561Z,15.45
2023-09-06T20:11:29.300Z,14.18
2023-09-06T20:13:59.197Z,12.70
2023-09-06T20:16:26.476Z,13.52
2023-09-06T20:18:57.108Z,14.75
2023-09-06T20:21:27.475Z,13.57
2023-09-06T20:23:54.912Z,12.27
2023-09-06T20:26:22.287Z,12.80
2023-09-06T20:28:50.037Z,11.27
2023-09-06T20:31:17.938Z,15.07
2023-09-06T20:33:45.307Z,10.70
2023-09-06T20:36:14.878Z,10.25
2023-09-06T20:38:42.102Z,10.93
2023-09-06T20:41:10.049Z,12.90
2023-09-06T20:43:37.678Z,10.15
2023-09-06T20:46:05.304Z,11.57
2023-09-06T20:48:33.119Z,11.32
2023-09-06T20:51:03.462Z,10.67
2023-09-06T20:53:33.785Z,16.73
2023-09-06T20:56:00.904Z,13.23
2023-09-06T20:58:28.246Z,11.27
2023-09-06T21:00:56.915Z,10.98
2023-09-06T21:03:26.042Z,13.07
2023-09-06T21:05:59.357Z,11.80
2023-09-06T21:08:26.847Z,11.38
2023-09-06T21:10:54.248Z,12.50
2023-09-06T21:13:21.395Z,10.07
2023-09-06T21:15:49.220Z,12.47
2023-09-06T21:18:16.391Z,12.30
2023-09-06T21:20:43.830Z,11.18
2023-09-06T21:23:11.017Z,11.40
2023-09-06T21:25:41.480Z,10.63
2023-09-06T21:28:08.853Z,11.23
2023-09-06T21:30:38.992Z,11.82
2023-09-06T21:33:06.258Z,12.43
2023-09-06T21:35:34.778Z,12.13
2023-09-06T21:38:02.202Z,12.43
2023-09-06T21:40:29.401Z,11.27
2023-09-06T21:43:10.765Z,12.18
2023-09-06T21:45:44.099Z,12.65
2023-09-06T21:48:12.410Z,11.88
2023-09-06T21:50:46.598Z,11.63
2023-09-06T21:53:13.873Z,13.17
2023-09-06T21:55:41.042Z,12.57
2023-09-06T21:58:11.253Z,12.63
2023-09-06T22:00:40.359Z,11.82
2023-09-06T22:03:26.545Z,13.40
2023-09-06T22:06:12.499Z,13.37
2023-09-06T22:08:58.191Z,9.50
2023-09-06T22:11:44.911Z,10.70
2023-09-06T22:14:12.025Z,9.80
2023-09-06T22:16:39.338Z,10.63
2023-09-06T22:19:07.836Z,12.83
2023-09-06T22:21:35.709Z,13.27
2023-09-06T22:24:02.852Z,10.82
2023-09-06T22:26:30.189Z,10.10
2023-09-06T22:29:01.518Z,10.48
2023-09-06T22:31:30.346Z,11.27
2023-09-06T22:33:57.636Z,13.07
2023-09-06T22:36:25.637Z,13.98
2023-09-06T22:38:53.348Z,11.52
2023-09-06T22:41:21.663Z,13.13
2023-09-06T22:43:48.984Z,13.53
2023-09-06T22:46:17.714Z,11.65
2023-09-06T22:48:54.414Z,16.55
2023-09-06T22:51:22.064Z,10.27
2023-09-06T22:53:49.276Z,12.15
2023-09-06T22:56:18.588Z,15.27
2023-09-06T22:58:45.927Z,11.75
2023-09-06T23:01:14.059Z,14.73
2023-09-06T23:03:44.289Z,11.10
2023-09-06T23:06:12.725Z,11.55
2023-09-06T23:08:40.400Z,10.77
2023-09-06T23:11:11.939Z,15.27
2023-09-06T23:13:42.901Z,11.32
2023-09-06T23:16:11.481Z,11.13
2023-09-06T23:18:44.811Z,11.85
2023-09-06T23:21:14.226Z,12.60
2023-09-06T23:23:43.900Z,12.32
2023-09-06T23:26:13.401Z,11.10
2023-09-06T23:28:45.862Z,12.30
2023-09-06T23:31:15.609Z,13.98
2023-09-06T23:33:49.514Z,11.07
2023-09-06T23:36:18.986Z,11.50
2023-09-06T23:38:47.085Z,11.15
2023-09-06T23:41:17.786Z,10.82
2023-09-06T23:43:45.283Z,13.40
2023-09-06T23:46:12.853Z,12.10
2023-09-06T23:48:40.101Z,11.80
2023-09-06T23:51:07.856Z,10.82
2023-09-06T23:53:35.684Z,10.73
2023-09-06T23:56:04.713Z,10.35
2023-09-06T23:58:32.220Z,11.20
